createdAt,value
2022-09-14T00:00:23.644Z,76.15
2022-09-14T00:03:26.578Z,76.34
2022-09-14T00:06:30.412Z,76.67
2022-09-14T00:09:33.252Z,76.75
2022-09-14T00:12:37.353Z,76.40
2022-09-14T00:15:41.931Z,76.54
2022-09-14T00:18:44.955Z,76.62
2022-09-14T00:21:53.225Z,76.22
2022-09-14T00:24:56.098Z,76.37
2022-09-14T00:28:00.165Z,76.25
2022-09-14T00:31:05.197Z,76.32
2022-09-14T00:34:09.901Z,76.21
2022-09-14T00:37:13.242Z,76.66
2022-09-14T00:40:16.238Z,75.75
2022-09-14T00:43:20.342Z,76.40
2022-09-14T00:46:23.721Z,76.17
2022-09-14T00:49:30.995Z,76.85
2022-09-14T00:52:36.891Z,76.13
2022-09-14T00:55:39.999Z,76.04
2022-09-14T00:58:45.677Z,76.55
2022-09-14T01:01:48.881Z,76.41
2022-09-14T01:04:52.368Z,77.02
2022-09-14T01:08:25.816Z,76.45
2022-09-14T01:11:46.383Z,77.58
2022-09-14T01:15:07.194Z,76.90
2022-09-14T01:18:17.498Z,76.89
2022-09-14T01:21:24.875Z,76.86
2022-09-14T01:24:36.330Z,76.98
2022-09-14T01:27:44.221Z,77.17
2022-09-14T01:30:48.910Z,76.75
2022-09-14T01:33:58.376Z,76.70
2022-09-14T01:37:12.811Z,76.90
2022-09-14T01:40:21.282Z,76.64
2022-09-14T01:43:30.269Z,76.47
2022-09-14T01:46:39.918Z,76.67
2022-09-14T01:49:47.237Z,76.68
2022-09-14T01:52:54.503Z,77.20
2022-09-14T01:56:01.175Z,76.49
2022-09-14T01:59:11.058Z,77.27
2022-09-14T02:02:18.475Z,76.94
2022-09-14T02:05:30.606Z,77.13
2022-09-14T02:08:34.783Z,77.50
2022-09-14T02:11:38.103Z,77.23
2022-09-14T02:14:42.451Z,78.25
2022-09-14T02:17:45.421Z,77.70
2022-09-14T02:20:52.182Z,77.51
2022-09-14T02:23:55.151Z,77.44
2022-09-14T02:26:59.907Z,77.20
2022-09-14T02:30:04.857Z,77.43
2022-09-14T02:33:16.626Z,76.97
2022-09-14T02:36:33.327Z,77.95
2022-09-14T02:39:44.088Z,77.71
2022-09-14T02:42:57.317Z,77.65
2022-09-14T02:46:07.798Z,77.91
2022-09-14T02:49:18.925Z,77.81
2022-09-14T02:52:32.170Z,77.30
2022-09-14T02:55:38.496Z,77.90
2022-09-14T02:58:43.411Z,78.11
2022-09-14T03:01:47.829Z,78.47
2022-09-14T03:04:50.607Z,77.75
2022-09-14T03:07:53.445Z,78.13
2022-09-14T03:10:56.442Z,77.93
2022-09-14T03:13:59.266Z,78.26
2022-09-14T03:17:03.437Z,78.04
2022-09-14T03:20:07.111Z,78.25
2022-09-14T03:23:11.238Z,78.47
2022-09-14T03:26:15.651Z,78.49
2022-09-14T03:29:18.368Z,78.47
2022-09-14T03:32:22.602Z,78.14
2022-09-14T03:35:25.691Z,77.56
2022-09-14T03:38:30.216Z,78.15
2022-09-14T03:41:32.812Z,78.03
2022-09-14T03:44:35.510Z,78.37
2022-09-14T03:47:40.122Z,77.99
2022-09-14T03:50:42.766Z,77.83
2022-09-14T03:53:46.143Z,78.49
2022-09-14T03:56:48.682Z,78.50
2022-09-14T03:59:51.490Z,77.67
2022-09-14T04:02:55.592Z,78.12
2022-09-14T04:05:58.214Z,78.52
2022-09-14T04:09:00.813Z,78.61
2022-09-14T04:12:03.837Z,78.55
2022-09-14T04:15:07.144Z,78.78
2022-09-14T04:18:11.082Z,78.48
2022-09-14T04:21:16.224Z,78.76
2022-09-14T04:24:19.203Z,79.45
2022-09-14T04:27:21.959Z,79.22
2022-09-14T04:30:24.530Z,80.10
2022-09-14T04:33:32.036Z,79.71
2022-09-14T04:36:34.804Z,80.13
2022-09-14T04:39:37.667Z,79.85
2022-09-14T04:42:40.276Z,79.02
2022-09-14T04:45:42.967Z,79.54
2022-09-14T04:48:47.471Z,79.94
2022-09-14T04:51:50.593Z,80.02
2022-09-14T04:54:53.268Z,79.81
2022-09-14T04:57:55.827Z,79.98
2022-09-14T05:01:02.470Z,79.96
2022-09-14T05:04:08.658Z,79.68
2022-09-14T05:07:11.587Z,79.57
2022-09-14T05:10:14.218Z,79.77
2022-09-14T05:13:16.779Z,79.70
2022-09-14T05:16:21.085Z,79.85
2022-09-14T05:19:25.070Z,79.74
2022-09-14T05:22:27.689Z,79.41
2022-09-14T05:25:30.388Z,79.37
2022-09-14T05:28:33.834Z,79.43
2022-09-14T05:31:36.587Z,78.90
2022-09-14T05:34:40.531Z,78.84
2022-09-14T05:37:43.206Z,78.75
2022-09-14T05:40:45.928Z,78.31
2022-09-14T05:43:48.519Z,78.81
2022-09-14T05:46:51.462Z,78.45
2022-09-14T05:49:55.394Z,77.87
2022-09-14T05:52:58.117Z,78.67
2022-09-14T05:56:01.506Z,78.26
2022-09-14T05:59:04.286Z,78.00
2022-09-14T06:02:07.902Z,76.69
2022-09-14T06:05:11.935Z,77.29
2022-09-14T06:08:14.575Z,77.69
2022-09-14T06:11:19.311Z,78.48
2022-09-14T06:14:21.998Z,77.61
2022-09-14T06:17:24.568Z,77.55
2022-09-14T06:20:28.687Z,76.65
2022-09-14T06:23:32.144Z,76.25
2022-09-14T06:26:34.889Z,74.94
2022-09-14T06:29:37.478Z,74.06
2022-09-14T06:32:40.178Z,74.21
2022-09-14T06:35:46.331Z,73.04
2022-09-14T06:38:50.302Z,72.92
2022-09-14T06:41:53.054Z,72.15
2022-09-14T06:44:55.656Z,71.64
2022-09-14T06:47:58.823Z,67.50
2022-09-14T06:51:12.536Z,65.81
2022-09-14T06:54:16.527Z,66.62
2022-09-14T06:57:19.229Z,65.89
2022-09-14T07:00:21.893Z,66.21
2022-09-14T07:03:24.549Z,68.31
2022-09-14T07:06:31.202Z,66.63
2022-09-14T07:09:34.393Z,67.36
2022-09-14T07:12:37.541Z,68.91
2022-09-14T07:15:40.165Z,67.42
2022-09-14T07:18:43.152Z,68.79
2022-09-14T07:21:48.340Z,65.00
2022-09-14T07:24:50.899Z,61.95
2022-09-14T07:27:53.477Z,62.09
2022-09-14T07:30:59.010Z,63.10
2022-09-14T07:34:03.774Z,62.40
2022-09-14T07:37:07.748Z,63.58
2022-09-14T07:40:11.980Z,62.81
2022-09-14T07:43:14.947Z,61.83
2022-09-14T07:46:17.630Z,59.06
2022-09-14T07:49:22.159Z,60.47
2022-09-14T07:52:26.259Z,60.80
2022-09-14T07:55:29.951Z,59.96
2022-09-14T07:58:32.993Z,60.98
2022-09-14T08:01:35.719Z,59.93
2022-09-14T08:04:39.238Z,60.84
2022-09-14T08:07:43.258Z,59.32
2022-09-14T08:10:45.801Z,59.24
2022-09-14T08:13:51.834Z,59.63
2022-09-14T08:16:54.480Z,58.94
2022-09-14T08:19:57.219Z,58.74
2022-09-14T08:23:01.444Z,57.16
2022-09-14T08:26:05.281Z,56.13
2022-09-14T08:29:08.275Z,57.35
2022-09-14T08:32:12.951Z,56.58
2022-09-14T08:35:15.609Z,55.68
2022-09-14T08:38:19.522Z,55.74
2022-09-14T08:41:29.070Z,56.47
2022-09-14T08:44:37.531Z,56.47
2022-09-14T08:47:41.921Z,55.76
2022-09-14T08:50:44.490Z,57.08
2022-09-14T08:53:50.713Z,56.71
2022-09-14T08:57:00.589Z,57.20
2022-09-14T09:03:45.408Z,56.88
2022-09-14T09:06:58.229Z,56.68
2022-09-14T09:10:06.132Z,54.85
2022-09-14T09:13:13.591Z,56.25
2022-09-14T09:19:28.678Z,55.15
2022-09-14T09:22:39.116Z,54.33
2022-09-14T09:25:52.791Z,54.18
2022-09-14T09:28:58.555Z,55.73
2022-09-14T09:32:01.375Z,53.22
2022-09-14T09:35:06.493Z,53.41
2022-09-14T09:38:15.915Z,49.20
2022-09-14T09:41:25.044Z,50.55
2022-09-14T09:44:27.786Z,49.02
2022-09-14T09:47:33.646Z,48.67
2022-09-14T09:50:36.330Z,48.60
2022-09-14T09:53:46.781Z,48.94
2022-09-14T09:56:56.529Z,47.97
2022-09-14T10:00:21.176Z,47.05
2022-09-14T10:03:29.498Z,46.86
2022-09-14T10:06:33.007Z,47.92
2022-09-14T10:09:36.591Z,48.93
2022-09-14T10:12:47.339Z,49.30
2022-09-14T10:15:50.198Z,48.61
2022-09-14T10:18:54.521Z,47.46
2022-09-14T10:22:17.634Z,47.64
2022-09-14T10:25:23.948Z,49.25
2022-09-14T10:28:30.539Z,49.32
2022-09-14T10:31:46.385Z,48.78
2022-09-14T10:34:49.075Z,48.05
2022-09-14T10:38:06.093Z,46.95
2022-09-14T10:41:24.524Z,46.50
2022-09-14T10:44:46.602Z,47.54
2022-09-14T10:48:03.635Z,47.06
2022-09-14T10:51:20.667Z,45.92
2022-09-14T10:54:46.872Z,47.47
2022-09-14T10:57:58.019Z,46.82
2022-09-14T11:01:17.655Z,46.76
2022-09-14T11:04:37.615Z,46.79
2022-09-14T11:07:51.587Z,47.57
2022-09-14T11:11:11.631Z,47.60
2022-09-14T11:14:29.387Z,48.02
2022-09-14T11:17:54.034Z,47.77
2022-09-14T11:21:07.806Z,47.15
2022-09-14T11:24:19.438Z,46.44
2022-09-14T11:27:27.928Z,44.98
2022-09-14T11:30:38.088Z,44.70
2022-09-14T11:33:49.807Z,44.93
2022-09-14T11:36:56.913Z,43.67
2022-09-14T11:40:08.046Z,44.03
2022-09-14T11:43:15.113Z,43.52
2022-09-14T11:46:22.456Z,44.02
2022-09-14T11:49:35.383Z,41.88
2022-09-14T11:52:37.957Z,45.29
2022-09-14T11:55:45.486Z,44.20
2022-09-14T11:58:48.338Z,44.98
2022-09-14T12:01:51.155Z,43.81
2022-09-14T12:05:29.801Z,44.63
2022-09-14T12:08:41.422Z,45.15
2022-09-14T12:11:45.043Z,43.51
2022-09-14T12:14:47.802Z,45.19
2022-09-14T12:17:51.621Z,44.86
2022-09-14T12:21:07.431Z,45.67
2022-09-14T12:24:16.690Z,47.05
2022-09-14T12:27:23.206Z,47.48
2022-09-14T12:30:40.591Z,47.78
2022-09-14T12:34:19.906Z,47.88
2022-09-14T12:37:32.492Z,48.14
2022-09-14T12:40:39.978Z,47.86
2022-09-14T12:43:55.267Z,46.67
2022-09-14T12:46:57.982Z,48.11
2022-09-14T12:50:13.566Z,48.17
2022-09-14T12:53:27.154Z,48.25
2022-09-14T12:56:39.248Z,47.49
2022-09-14T12:59:53.603Z,48.46
2022-09-14T13:03:14.976Z,46.62
2022-09-14T13:06:19.352Z,47.18
2022-09-14T13:09:25.344Z,48.08
2022-09-14T13:12:42.096Z,47.15
2022-09-14T13:15:52.707Z,46.97
2022-09-14T13:19:01.784Z,46.72
2022-09-14T13:22:19.162Z,47.70
2022-09-14T13:25:28.649Z,47.33
2022-09-14T13:28:33.008Z,47.28
2022-09-14T13:31:38.739Z,47.42
2022-09-14T13:34:41.510Z,49.14
2022-09-14T13:37:48.181Z,49.02
2022-09-14T13:40:53.640Z,49.83
2022-09-14T13:43:58.974Z,49.67
2022-09-14T13:47:04.666Z,48.30
2022-09-14T13:50:08.537Z,48.95
2022-09-14T13:53:43.505Z,49.43
2022-09-14T13:56:47.336Z,48.84
2022-09-14T14:00:17.394Z,48.24
2022-09-14T14:03:28.235Z,48.26
2022-09-14T14:06:34.756Z,47.38
2022-09-14T14:09:43.622Z,48.69
2022-09-14T14:12:50.578Z,49.57
2022-09-14T14:16:14.589Z,49.19
2022-09-14T14:19:29.104Z,48.38
2022-09-14T14:22:34.392Z,49.26
2022-09-14T14:25:45.833Z,49.64
2022-09-14T14:28:49.002Z,49.34
2022-09-14T14:31:55.914Z,50.91
2022-09-14T14:35:05.549Z,49.76
2022-09-14T14:38:09.503Z,49.82
2022-09-14T14:41:16.362Z,50.65
2022-09-14T14:44:22.428Z,50.74
2022-09-14T14:47:27.534Z,50.92
2022-09-14T14:50:33.623Z,50.40
2022-09-14T14:53:36.324Z,50.59
2022-09-14T14:56:39.276Z,51.19
2022-09-14T14:59:41.817Z,51.52
2022-09-14T15:02:46.044Z,52.21
2022-09-14T15:05:49.919Z,52.11
2022-09-14T15:08:54.818Z,50.98
2022-09-14T15:11:57.542Z,51.97
2022-09-14T15:15:00.988Z,53.00
2022-09-14T15:18:05.063Z,52.82
2022-09-14T15:21:08.515Z,53.32
2022-09-14T15:24:12.180Z,53.90
2022-09-14T15:27:14.974Z,53.75
2022-09-14T15:30:17.798Z,54.23
2022-09-14T15:33:21.699Z,53.99
2022-09-14T15:36:41.517Z,53.63
2022-09-14T15:39:50.098Z,54.30
2022-09-14T15:42:52.912Z,54.46
2022-09-14T15:45:55.551Z,54.97
2022-09-14T15:49:00.209Z,54.79
2022-09-14T15:52:03.479Z,54.76
2022-09-14T15:55:08.243Z,55.40
2022-09-14T15:58:11.857Z,55.62
2022-09-14T16:01:17.067Z,55.73
2022-09-14T16:04:22.029Z,55.85
2022-09-14T16:07:24.661Z,56.16
2022-09-14T16:10:27.415Z,55.81
2022-09-14T16:13:30.493Z,56.01
2022-09-14T16:16:34.815Z,54.76
2022-09-14T16:19:39.311Z,55.81
2022-09-14T16:22:42.006Z,57.27
2022-09-14T16:25:44.605Z,57.21
2022-09-14T16:28:49.390Z,56.73
2022-09-14T16:31:52.931Z,57.53
2022-09-14T16:34:56.903Z,57.47
2022-09-14T16:37:59.448Z,57.60
2022-09-14T16:41:02.426Z,58.25
2022-09-14T16:44:06.240Z,58.55
2022-09-14T16:47:08.812Z,59.46
2022-09-14T16:50:12.730Z,59.70
2022-09-14T16:53:15.272Z,60.07
2022-09-14T16:56:20.171Z,60.42
2022-09-14T16:59:23.101Z,60.59
2022-09-14T17:02:25.834Z,60.64
2022-09-14T17:05:29.915Z,61.13
2022-09-14T17:08:33.619Z,61.40
2022-09-14T17:11:37.667Z,61.82
2022-09-14T17:14:40.381Z,61.99
2022-09-14T17:17:42.926Z,63.12
2022-09-14T17:20:55.199Z,62.62
2022-09-14T17:23:57.817Z,62.32
2022-09-14T17:27:00.375Z,62.62
2022-09-14T17:30:03.085Z,62.91
2022-09-14T17:33:05.643Z,63.81
2022-09-14T17:36:09.868Z,64.43
2022-09-14T17:39:13.012Z,64.80
2022-09-14T17:42:15.559Z,64.59
2022-09-14T17:45:18.283Z,64.73
2022-09-14T17:48:21.835Z,64.77
2022-09-14T17:51:28.027Z,64.17
2022-09-14T17:54:31.573Z,65.12
2022-09-14T17:57:34.234Z,65.36
2022-09-14T18:00:37.278Z,65.45
2022-09-14T18:03:41.913Z,66.10
2022-09-14T18:06:50.248Z,65.90
2022-09-14T18:09:52.924Z,65.94
2022-09-14T18:12:55.492Z,65.71
2022-09-14T18:15:58.452Z,65.99
2022-09-14T18:19:01.513Z,66.33
2022-09-14T18:22:05.656Z,66.59
2022-09-14T18:25:09.777Z,66.98
2022-09-14T18:28:12.693Z,66.84
2022-09-14T18:31:17.437Z,66.81
2022-09-14T18:34:21.166Z,66.91
2022-09-14T18:37:25.103Z,67.10
2022-09-14T18:40:27.859Z,66.99
2022-09-14T18:43:32.530Z,67.17
2022-09-14T18:46:35.372Z,67.70
2022-09-14T18:49:37.989Z,67.42
2022-09-14T18:52:42.013Z,67.88
2022-09-14T18:55:44.589Z,67.93
2022-09-14T18:58:48.836Z,68.51
2022-09-14T19:01:51.405Z,68.39
2022-09-14T19:04:54.383Z,68.41
2022-09-14T19:07:58.603Z,68.20
2022-09-14T19:11:06.099Z,67.97
2022-09-14T19:14:11.647Z,68.34
2022-09-14T19:17:14.398Z,68.50
2022-09-14T19:20:18.082Z,69.02
2022-09-14T19:23:22.112Z,68.84
2022-09-14T19:26:24.780Z,68.63
2022-09-14T19:29:28.681Z,68.91
2022-09-14T19:32:31.248Z,69.29
2022-09-14T19:35:33.952Z,69.79
2022-09-14T19:38:38.405Z,69.85
2022-09-14T19:41:41.453Z,69.87
2022-09-14T19:44:44.360Z,70.23
2022-09-14T19:47:47.152Z,70.27
2022-09-14T19:50:49.785Z,70.30
2022-09-14T19:53:56.003Z,70.19
2022-09-14T19:56:58.755Z,70.43
2022-09-14T20:00:01.351Z,70.39
2022-09-14T20:03:04.185Z,70.31
2022-09-14T20:06:09.853Z,70.14
2022-09-14T20:09:16.588Z,70.21
2022-09-14T20:12:19.250Z,70.67
2022-09-14T20:15:22.082Z,70.44
2022-09-14T20:18:24.829Z,70.48
2022-09-14T20:21:28.956Z,71.00
2022-09-14T20:24:32.880Z,70.92
2022-09-14T20:27:35.605Z,70.84
2022-09-14T20:30:38.173Z,71.00
2022-09-14T20:33:41.173Z,71.07
2022-09-14T20:36:44.128Z,71.37
2022-09-14T20:39:48.566Z,71.63
2022-09-14T20:42:53.915Z,71.88
2022-09-14T20:46:01.070Z,71.82
2022-09-14T20:49:05.703Z,72.21
2022-09-14T20:52:08.403Z,72.17
2022-09-14T20:55:12.290Z,71.91
2022-09-14T20:58:14.980Z,72.01
2022-09-14T21:01:19.192Z,72.29
2022-09-14T21:04:23.620Z,72.69
2022-09-14T21:07:26.537Z,72.51
2022-09-14T21:10:30.710Z,72.26
2022-09-14T21:13:33.580Z,72.37
2022-09-14T21:16:42.926Z,72.27
2022-09-14T21:19:45.618Z,72.38
2022-09-14T21:22:48.527Z,72.64
2022-09-14T21:25:56.684Z,73.12
2022-09-14T21:29:01.193Z,72.65
2022-09-14T21:32:08.307Z,72.49
2022-09-14T21:35:11.718Z,72.97
2022-09-14T21:38:14.374Z,73.16
2022-09-14T21:41:19.619Z,72.98
2022-09-14T21:44:22.322Z,73.25
2022-09-14T21:47:24.918Z,73.56
2022-09-14T21:50:27.681Z,73.21
2022-09-14T21:53:30.515Z,73.91
2022-09-14T21:56:37.944Z,73.47
2022-09-14T21:59:40.568Z,74.00
2022-09-14T22:02:43.630Z,74.12
2022-09-14T22:05:56.705Z,73.78
2022-09-14T22:09:01.127Z,73.71
2022-09-14T22:12:05.425Z,73.49
2022-09-14T22:15:09.161Z,74.19
2022-09-14T22:18:11.704Z,74.12
2022-09-14T22:21:14.541Z,73.85
2022-09-14T22:24:19.549Z,74.07
2022-09-14T22:27:23.776Z,74.11
2022-09-14T22:30:26.618Z,74.04
2022-09-14T22:33:29.879Z,74.03
2022-09-14T22:36:33.106Z,74.13
2022-09-14T22:39:35.654Z,74.47
2022-09-14T22:42:39.715Z,74.32
2022-09-14T22:45:42.323Z,74.32
2022-09-14T22:48:45.752Z,74.31
2022-09-14T22:51:48.467Z,74.41
2022-09-14T22:54:51.139Z,74.33
2022-09-14T22:57:55.051Z,74.61
2022-09-14T23:00:57.792Z,74.98
2022-09-14T23:04:02.661Z,75.06
2022-09-14T23:07:07.627Z,75.15
2022-09-14T23:10:10.480Z,75.20
2022-09-14T23:13:14.564Z,75.33
2022-09-14T23:16:19.274Z,75.26
2022-09-14T23:19:22.073Z,75.37
2022-09-14T23:22:24.706Z,76.33
2022-09-14T23:25:27.357Z,76.14
2022-09-14T23:28:31.364Z,76.59
2022-09-14T23:31:34.801Z,75.96
2022-09-14T23:34:37.359Z,75.94
2022-09-14T23:37:40.036Z,76.06
2022-09-14T23:40:43.160Z,76.26
2022-09-14T23:43:47.804Z,76.42
2022-09-14T23:46:50.383Z,76.15
2022-09-14T23:49:53.107Z,76.48
2022-09-14T23:52:57.760Z,76.33
2022-09-14T23:56:00.852Z,76.16
2022-09-14T23:59:05.138Z,76.25
